createdAt,value
2022-10-04T00:02:00.624Z,10.77
2022-10-04T00:04:04.953Z,11.30
2022-10-04T00:06:12.085Z,11.30
2022-10-04T00:08:19.630Z,11.35
2022-10-04T00:10:23.566Z,11.00
2022-10-04T00:12:31.193Z,10.98
2022-10-04T00:14:35.579Z,10.95
2022-10-04T00:16:39.197Z,10.73
2022-10-04T00:18:44.870Z,10.35
2022-10-04T00:20:53.551Z,10.25
2022-10-04T00:23:21.172Z,9.88
2022-10-04T00:25:33.604Z,10.52
2022-10-04T00:27:36.251Z,9.75
2022-10-04T00:29:39.250Z,9.73
2022-10-04T00:31:59.602Z,9.82
2022-10-04T00:34:04.054Z,9.60
2022-10-04T00:36:26.755Z,9.80
2022-10-04T00:38:28.958Z,9.90
2022-10-04T00:40:33.847Z,9.98
2022-10-04T00:42:43.319Z,9.65
2022-10-04T00:44:49.173Z,10.00
2022-10-04T00:46:51.652Z,15.07
2022-10-04T00:48:55.446Z,9.10
2022-10-04T00:51:04.030Z,9.25
2022-10-04T00:53:13.982Z,9.10
2022-10-04T00:55:22.365Z,8.82
2022-10-04T00:57:34.646Z,10.15
2022-10-04T00:59:49.394Z,8.77
2022-10-04T01:01:53.764Z,8.55
2022-10-04T01:03:57.487Z,8.50
2022-10-04T01:06:00.999Z,8.68
2022-10-04T01:08:09.869Z,8.77
2022-10-04T01:10:15.594Z,8.35
2022-10-04T01:12:23.436Z,8.45
2022-10-04T01:14:39.827Z,7.80
2022-10-04T01:16:41.871Z,7.63
2022-10-04T01:18:43.390Z,8.50
2022-10-04T01:20:58.822Z,8.30
2022-10-04T01:23:00.673Z,7.88
2022-10-04T01:25:02.824Z,7.55
2022-10-04T01:27:04.412Z,6.85
2022-10-04T01:29:23.866Z,6.90
2022-10-04T01:31:26.619Z,7.30
2022-10-04T01:33:28.267Z,7.50
2022-10-04T01:35:30.372Z,8.55
2022-10-04T01:37:31.951Z,8.07
2022-10-04T01:39:33.516Z,7.85
2022-10-04T01:41:42.205Z,6.32
2022-10-04T01:43:47.022Z,7.32
2022-10-04T01:45:54.489Z,7.40
2022-10-04T01:47:59.807Z,7.20
2022-10-04T01:50:09.042Z,7.45
2022-10-04T01:52:18.343Z,7.68
2022-10-04T01:54:22.561Z,7.10
2022-10-04T01:56:26.448Z,6.78
2022-10-04T01:58:30.753Z,6.63
2022-10-04T02:00:32.749Z,6.20
2022-10-04T02:02:52.719Z,6.93
2022-10-04T02:04:56.043Z,6.43
2022-10-04T02:06:59.574Z,6.43
2022-10-04T02:09:02.384Z,6.20
2022-10-04T02:11:04.793Z,6.13
2022-10-04T02:13:10.954Z,6.45
2022-10-04T02:15:12.671Z,6.32
2022-10-04T02:17:14.921Z,6.60
2022-10-04T02:19:16.875Z,5.70
2022-10-04T02:21:18.906Z,6.20
2022-10-04T02:23:21.318Z,5.70
2022-10-04T02:25:23.299Z,6.05
2022-10-04T02:27:31.598Z,6.32
2022-10-04T02:29:33.244Z,5.55
2022-10-04T02:31:55.870Z,6.50
2022-10-04T02:33:58.467Z,5.75
2022-10-04T02:36:00.233Z,5.65
2022-10-04T02:38:10.594Z,4.57
2022-10-04T02:40:13.925Z,5.22
2022-10-04T02:42:24.777Z,4.75
2022-10-04T02:44:29.884Z,4.60
2022-10-04T02:46:37.882Z,5.55
2022-10-04T02:48:59.062Z,5.15
2022-10-04T02:51:06.349Z,4.13
2022-10-04T02:53:11.383Z,4.47
2022-10-04T02:55:15.728Z,4.40
2022-10-04T02:57:19.433Z,4.22
2022-10-04T02:59:21.334Z,4.18
2022-10-04T03:01:40.308Z,4.15
2022-10-04T03:03:45.203Z,3.70
2022-10-04T03:05:53.058Z,4.07
2022-10-04T03:07:54.946Z,4.63
2022-10-04T03:09:56.751Z,4.13
2022-10-04T03:11:59.035Z,4.18
2022-10-04T03:14:02.538Z,4.30
2022-10-04T03:16:04.943Z,4.28
2022-10-04T03:18:06.682Z,4.63
2022-10-04T03:20:09.194Z,4.72
2022-10-04T03:22:12.221Z,4.40
2022-10-04T03:24:16.820Z,4.07
2022-10-04T03:26:28.276Z,4.35
2022-10-04T03:28:30.167Z,4.78
2022-10-04T03:30:32.324Z,4.55
2022-10-04T03:32:33.912Z,4.57
2022-10-04T03:34:39.974Z,4.95
2022-10-04T03:36:41.727Z,4.63
2022-10-04T03:38:43.982Z,4.88
2022-10-04T03:40:51.736Z,4.93
2022-10-04T03:42:53.697Z,4.75
2022-10-04T03:44:57.394Z,5.45
2022-10-04T03:46:59.663Z,5.53
2022-10-04T03:49:01.550Z,5.75
2022-10-04T03:51:05.103Z,5.93
2022-10-04T03:53:18.751Z,6.13
2022-10-04T03:57:23.346Z,5.63
2022-10-04T03:59:26.314Z,5.53
2022-10-04T04:01:37.839Z,6.13
2022-10-04T04:03:50.956Z,6.38
2022-10-04T04:08:11.006Z,6.75
2022-10-04T04:10:23.093Z,7.07
2022-10-04T04:12:35.222Z,6.68
2022-10-04T04:14:38.911Z,7.35
2022-10-04T04:16:40.593Z,7.32
2022-10-04T04:18:43.965Z,6.93
2022-10-04T04:20:46.237Z,7.20
2022-10-04T04:23:16.944Z,8.18
2022-10-04T04:25:22.730Z,7.53
2022-10-04T04:27:29.018Z,7.75
2022-10-04T04:29:37.758Z,7.78
2022-10-04T04:31:45.145Z,7.88
2022-10-04T04:33:51.460Z,7.60
2022-10-04T04:35:55.350Z,7.65
2022-10-04T04:38:04.793Z,7.63
2022-10-04T04:40:20.298Z,7.63
2022-10-04T04:42:31.723Z,7.05
2022-10-04T04:44:33.966Z,6.90
2022-10-04T04:46:38.007Z,7.88
2022-10-04T04:48:43.344Z,7.28
2022-10-04T04:50:49.622Z,7.45
2022-10-04T04:52:55.279Z,7.10
2022-10-04T04:54:57.420Z,6.85
2022-10-04T04:56:59.199Z,6.57
2022-10-04T04:59:03.104Z,6.57
2022-10-04T05:01:06.775Z,6.60
2022-10-04T05:03:18.053Z,6.68
2022-10-04T05:05:32.797Z,6.45
2022-10-04T05:07:34.700Z,5.82
2022-10-04T05:09:40.872Z,5.75
2022-10-04T05:11:42.672Z,5.80
2022-10-04T05:13:47.711Z,5.97
2022-10-04T05:15:52.332Z,6.05
2022-10-04T05:17:53.954Z,6.18
2022-10-04T05:19:57.498Z,5.47
2022-10-04T05:22:01.082Z,5.28
2022-10-04T05:24:11.092Z,5.50
2022-10-04T05:26:13.794Z,5.07
2022-10-04T05:28:16.162Z,5.03
2022-10-04T05:30:42.752Z,5.27
2022-10-04T05:32:44.592Z,4.80
2022-10-04T05:34:48.547Z,5.25
2022-10-04T05:36:58.618Z,4.80
2022-10-04T05:39:06.065Z,4.38
2022-10-04T05:41:09.138Z,4.43
2022-10-04T05:43:31.887Z,4.28
2022-10-04T05:45:33.441Z,4.60
2022-10-04T05:47:35.344Z,4.45
2022-10-04T05:49:44.295Z,4.28
2022-10-04T05:52:00.992Z,4.53
2022-10-04T05:54:03.349Z,3.80
2022-10-04T05:56:17.235Z,4.35
2022-10-04T05:58:31.768Z,3.80
2022-10-04T06:00:39.718Z,4.25
2022-10-04T06:02:51.841Z,4.00
2022-10-04T06:05:12.184Z,3.60
2022-10-04T06:07:25.355Z,3.53
2022-10-04T06:09:45.335Z,3.92
2022-10-04T06:12:06.070Z,4.68
2022-10-04T06:14:10.957Z,3.60
2022-10-04T06:16:20.229Z,3.85
2022-10-04T06:18:24.815Z,3.53
2022-10-04T06:20:41.645Z,3.85
2022-10-04T06:22:47.012Z,4.10
2022-10-04T06:25:09.237Z,5.78
2022-10-04T06:27:11.047Z,5.68
2022-10-04T06:29:18.040Z,3.70
2022-10-04T06:31:24.254Z,3.28
2022-10-04T06:33:35.824Z,3.58
2022-10-04T06:35:37.336Z,3.75
2022-10-04T06:37:38.854Z,4.05
2022-10-04T06:39:43.632Z,3.53
2022-10-04T06:41:47.947Z,4.57
2022-10-04T06:43:49.632Z,3.63
2022-10-04T06:46:06.704Z,4.28
2022-10-04T06:48:27.196Z,4.18
2022-10-04T06:50:33.813Z,3.78
2022-10-04T06:52:48.415Z,3.40
2022-10-04T06:54:52.913Z,4.03
2022-10-04T06:57:19.015Z,4.60
2022-10-04T06:59:34.127Z,4.70
2022-10-04T07:01:37.700Z,3.92
2022-10-04T07:04:17.891Z,4.97
2022-10-04T07:06:41.238Z,4.50
2022-10-04T07:08:50.194Z,3.97
2022-10-04T07:10:55.449Z,4.30
2022-10-04T07:13:03.407Z,3.88
2022-10-04T07:15:10.220Z,4.20
2022-10-04T07:17:13.710Z,3.90
2022-10-04T07:19:53.855Z,4.47
2022-10-04T07:22:03.352Z,3.65
2022-10-04T07:24:09.554Z,3.72
2022-10-04T07:26:22.699Z,3.85
2022-10-04T07:28:49.515Z,3.92
2022-10-04T07:30:58.116Z,4.03
2022-10-04T07:33:00.713Z,4.38
2022-10-04T07:35:13.394Z,3.58
2022-10-04T07:37:15.889Z,4.47
2022-10-04T07:39:20.485Z,4.35
2022-10-04T07:41:28.783Z,4.43
2022-10-04T07:43:32.045Z,3.83
2022-10-04T07:45:35.308Z,4.22
2022-10-04T07:49:39.524Z,3.22
2022-10-04T07:53:53.651Z,3.83
2022-10-04T07:55:57.471Z,3.67
2022-10-04T07:58:20.386Z,3.42
2022-10-04T08:00:23.041Z,3.57
2022-10-04T08:02:31.020Z,3.30
2022-10-04T08:04:33.147Z,3.17
2022-10-04T08:06:36.694Z,3.83
2022-10-04T08:08:58.288Z,2.92
2022-10-04T08:11:03.275Z,3.63
2022-10-04T08:13:10.117Z,3.25
2022-10-04T08:15:14.812Z,3.65
2022-10-04T08:17:29.962Z,3.33
2022-10-04T08:19:47.432Z,3.30
2022-10-04T08:22:00.067Z,3.83
2022-10-04T08:24:04.702Z,3.88
2022-10-04T08:26:12.697Z,3.83
2022-10-04T08:28:51.278Z,3.30
2022-10-04T08:31:02.641Z,3.25
2022-10-04T08:33:09.096Z,3.15
2022-10-04T08:35:19.951Z,3.20
2022-10-04T08:37:46.121Z,3.10
2022-10-04T08:39:53.880Z,3.00
2022-10-04T08:42:20.541Z,2.45
2022-10-04T08:44:41.524Z,2.83
2022-10-04T08:47:03.979Z,2.75
2022-10-04T08:49:05.517Z,2.78
2022-10-04T08:51:13.517Z,2.22
2022-10-04T08:53:18.557Z,2.30
2022-10-04T08:55:38.647Z,2.40
2022-10-04T08:57:43.457Z,2.35
2022-10-04T08:59:46.658Z,2.33
2022-10-04T09:01:51.696Z,2.33
2022-10-04T09:04:05.513Z,2.00
2022-10-04T09:06:07.108Z,2.15
2022-10-04T09:08:11.657Z,1.63
2022-10-04T09:10:13.565Z,1.88
2022-10-04T09:12:21.543Z,1.98
2022-10-04T09:14:42.344Z,2.00
2022-10-04T09:16:48.195Z,2.10
2022-10-04T09:18:56.122Z,2.03
2022-10-04T09:21:04.318Z,1.90
2022-10-04T09:23:11.941Z,1.92
2022-10-04T09:25:13.968Z,2.00
2022-10-04T09:27:53.775Z,2.28
2022-10-04T09:30:11.469Z,1.60
2022-10-04T09:32:16.141Z,1.80
2022-10-04T09:34:23.034Z,1.60
2022-10-04T09:36:40.589Z,2.13
2022-10-04T09:39:25.616Z,1.52
2022-10-04T09:41:34.470Z,2.10
2022-10-04T09:43:56.071Z,2.03
2022-10-04T09:46:05.811Z,2.00
2022-10-04T09:48:25.199Z,1.88
2022-10-04T09:50:42.230Z,1.90
2022-10-04T09:52:50.238Z,1.95
2022-10-04T09:54:51.723Z,2.13
2022-10-04T09:56:53.430Z,2.60
2022-10-04T09:59:03.868Z,2.60
2022-10-04T10:01:11.631Z,2.35
2022-10-04T10:03:15.971Z,2.50
2022-10-04T10:05:36.303Z,2.38
2022-10-04T10:07:56.363Z,2.78
2022-10-04T10:10:37.442Z,2.03
2022-10-04T10:13:11.201Z,2.63
2022-10-04T10:15:15.821Z,1.80
2022-10-04T10:17:36.360Z,1.98
2022-10-04T10:19:37.891Z,1.80
2022-10-04T10:21:39.768Z,1.90
2022-10-04T10:23:56.659Z,2.05
2022-10-04T10:26:16.934Z,2.50
2022-10-04T10:28:34.760Z,1.77
2022-10-04T10:30:59.579Z,2.17
2022-10-04T10:33:01.363Z,1.85
2022-10-04T10:35:15.646Z,1.88
2022-10-04T10:37:23.146Z,1.90
2022-10-04T10:39:27.781Z,1.88
2022-10-04T10:41:56.064Z,1.77
2022-10-04T10:44:18.176Z,2.33
2022-10-04T10:46:38.251Z,2.30
2022-10-04T10:48:45.017Z,2.05
2022-10-04T10:51:10.402Z,2.05
2022-10-04T10:53:20.155Z,2.22
2022-10-04T10:55:41.165Z,2.05
2022-10-04T10:57:42.739Z,2.10
2022-10-04T11:00:08.043Z,1.90
2022-10-04T11:02:47.701Z,1.80
2022-10-04T11:05:08.797Z,2.08
2022-10-04T11:07:16.409Z,1.70
2022-10-04T11:09:34.237Z,2.03
2022-10-04T11:11:56.428Z,2.03
2022-10-04T11:14:36.748Z,2.20
2022-10-04T11:16:50.114Z,1.80
2022-10-04T11:19:10.851Z,1.80
2022-10-04T11:21:30.784Z,1.90
2022-10-04T11:23:51.847Z,1.92
2022-10-04T11:26:19.799Z,2.05
2022-10-04T11:28:24.322Z,1.83
2022-10-04T11:30:27.064Z,1.90
2022-10-04T11:32:55.103Z,1.63
2022-10-04T11:34:59.943Z,2.10
2022-10-04T11:37:17.201Z,1.65
2022-10-04T11:39:54.335Z,1.60
2022-10-04T11:42:02.081Z,2.13
2022-10-04T11:44:21.592Z,1.90
2022-10-04T11:46:27.214Z,2.00
2022-10-04T11:48:48.523Z,2.40
2022-10-04T11:51:03.158Z,2.50
2022-10-04T11:53:13.892Z,1.88
2022-10-04T11:55:21.104Z,2.03
2022-10-04T11:57:32.150Z,2.25
2022-10-04T11:59:39.563Z,2.08
2022-10-04T12:01:50.316Z,2.13
2022-10-04T12:04:01.028Z,2.80
2022-10-04T12:06:08.089Z,2.28
2022-10-04T12:08:09.603Z,2.30
2022-10-04T12:10:21.857Z,2.15
2022-10-04T12:12:48.384Z,2.08
2022-10-04T12:14:57.192Z,2.00
2022-10-04T12:17:08.578Z,1.75
2022-10-04T12:19:25.724Z,2.22
2022-10-04T12:21:30.032Z,2.10
2022-10-04T12:23:37.960Z,1.90
2022-10-04T12:26:00.858Z,2.00
2022-10-04T12:28:14.546Z,1.90
2022-10-04T12:30:22.473Z,2.10
2022-10-04T12:32:28.491Z,1.92
2022-10-04T12:34:36.367Z,2.28
2022-10-04T12:36:44.917Z,2.00
2022-10-04T12:39:13.184Z,2.00
2022-10-04T12:41:33.624Z,2.20
2022-10-04T12:43:40.350Z,1.90
2022-10-04T12:45:41.993Z,2.35
2022-10-04T12:47:51.970Z,2.08
2022-10-04T12:49:54.753Z,3.10
2022-10-04T12:52:14.924Z,2.80
2022-10-04T12:54:37.895Z,2.90
2022-10-04T12:56:55.167Z,2.85
2022-10-04T12:59:15.362Z,3.25
2022-10-04T13:01:30.343Z,2.97
2022-10-04T13:03:32.239Z,2.75
2022-10-04T13:05:42.412Z,2.42
2022-10-04T13:07:46.977Z,2.70
2022-10-04T13:10:23.056Z,2.67
2022-10-04T13:12:47.050Z,2.53
2022-10-04T13:15:07.478Z,2.55
2022-10-04T13:17:27.305Z,2.58
2022-10-04T13:19:40.334Z,2.97
2022-10-04T13:21:45.111Z,2.67
2022-10-04T13:23:47.182Z,2.47
2022-10-04T13:26:04.167Z,2.80
2022-10-04T13:28:23.085Z,2.92
2022-10-04T13:30:43.467Z,2.55
2022-10-04T13:32:52.884Z,2.97
2022-10-04T13:34:54.445Z,2.97
2022-10-04T13:37:11.712Z,3.07
2022-10-04T13:39:13.938Z,3.03
2022-10-04T13:41:20.074Z,2.88
2022-10-04T13:43:34.114Z,2.63
2022-10-04T13:45:36.336Z,2.95
2022-10-04T13:47:47.342Z,3.10
2022-10-04T13:50:04.601Z,3.17
2022-10-04T13:52:33.619Z,3.15
2022-10-04T13:54:56.343Z,3.10
2022-10-04T13:57:04.499Z,2.80
2022-10-04T13:59:25.067Z,5.97
2022-10-04T14:01:45.783Z,3.60
2022-10-04T14:03:47.952Z,3.45
2022-10-04T14:05:49.497Z,4.38
2022-10-04T14:08:11.840Z,2.72
2022-10-04T14:10:32.315Z,3.30
2022-10-04T14:12:46.495Z,2.47
2022-10-04T14:14:47.990Z,2.17
2022-10-04T14:17:10.038Z,2.40
2022-10-04T14:19:14.550Z,2.20
2022-10-04T14:21:34.875Z,2.30
2022-10-04T14:23:56.362Z,1.92
2022-10-04T14:26:15.123Z,2.75
2022-10-04T14:28:34.913Z,2.75
2022-10-04T14:30:48.529Z,2.55
2022-10-04T14:32:51.922Z,3.15
2022-10-04T14:34:59.955Z,2.83
2022-10-04T14:37:28.295Z,2.90
2022-10-04T14:39:54.839Z,2.83
2022-10-04T14:41:56.622Z,3.67
2022-10-04T14:44:17.319Z,3.65
2022-10-04T14:46:38.974Z,3.25
2022-10-04T14:48:43.634Z,3.25
2022-10-04T14:50:46.056Z,3.33
2022-10-04T14:52:51.934Z,2.53
2022-10-04T14:54:56.271Z,2.60
2022-10-04T14:57:07.951Z,2.72
2022-10-04T14:59:16.813Z,3.17
2022-10-04T15:01:18.556Z,2.50
2022-10-04T15:03:30.387Z,2.70
2022-10-04T15:05:38.688Z,2.65
2022-10-04T15:07:46.859Z,2.60
2022-10-04T15:09:51.948Z,2.42
2022-10-04T15:14:36.817Z,2.50
2022-10-04T15:16:41.636Z,2.30
2022-10-04T15:19:09.362Z,2.30
2022-10-04T15:21:23.158Z,2.35
2022-10-04T15:23:37.768Z,2.50
2022-10-04T15:25:40.292Z,2.22
2022-10-04T15:27:50.450Z,2.55
2022-10-04T15:30:01.388Z,2.10
2022-10-04T15:32:06.419Z,2.53
2022-10-04T15:34:14.219Z,2.83
2022-10-04T15:36:37.990Z,2.47
2022-10-04T15:38:47.540Z,2.83
2022-10-04T15:41:08.610Z,2.67
2022-10-04T15:43:10.482Z,2.70
2022-10-04T15:45:14.362Z,3.15
2022-10-04T15:47:36.275Z,2.58
2022-10-04T15:49:57.134Z,2.60
2022-10-04T15:52:03.188Z,3.08
2022-10-04T15:54:18.782Z,3.13
2022-10-04T15:56:27.125Z,2.88
2022-10-04T15:58:32.009Z,2.78
2022-10-04T16:00:52.513Z,2.92
2022-10-04T16:03:09.213Z,3.17
2022-10-04T16:05:14.777Z,3.03
2022-10-04T16:07:29.863Z,2.85
2022-10-04T16:10:04.083Z,2.92
2022-10-04T16:12:20.403Z,2.83
2022-10-04T16:14:42.070Z,3.08
2022-10-04T16:16:48.418Z,2.83
2022-10-04T16:19:09.931Z,3.03
2022-10-04T16:21:17.622Z,2.60
2022-10-04T16:23:23.976Z,2.55
2022-10-04T16:25:26.227Z,3.13
2022-10-04T16:27:33.598Z,3.28
2022-10-04T16:29:40.726Z,4.45
2022-10-04T16:32:05.080Z,4.18
2022-10-04T16:34:09.971Z,4.38
2022-10-04T16:36:19.023Z,3.90
2022-10-04T16:38:23.764Z,4.07
2022-10-04T16:40:34.641Z,3.90
2022-10-04T16:42:36.423Z,4.20
2022-10-04T16:44:52.784Z,4.55
2022-10-04T16:46:56.292Z,4.43
2022-10-04T16:49:03.535Z,4.93
2022-10-04T16:51:17.697Z,5.03
2022-10-04T16:53:32.024Z,5.85
2022-10-04T16:55:37.985Z,5.53
2022-10-04T16:57:43.291Z,6.00
2022-10-04T16:59:46.807Z,6.22
2022-10-04T17:02:04.442Z,6.18
2022-10-04T17:04:24.563Z,6.50
2022-10-04T17:06:31.242Z,6.45
2022-10-04T17:08:48.282Z,6.32
2022-10-04T17:10:49.820Z,6.45
2022-10-04T17:12:55.435Z,6.38
2022-10-04T17:15:08.195Z,7.47
2022-10-04T17:17:24.593Z,6.32
2022-10-04T17:19:29.269Z,6.80
2022-10-04T17:21:38.082Z,8.10
2022-10-04T17:24:03.416Z,6.70
2022-10-04T17:26:05.087Z,6.65
2022-10-04T17:28:26.467Z,8.13
2022-10-04T17:30:30.493Z,8.48
2022-10-04T17:32:41.412Z,9.25
2022-10-04T17:34:46.997Z,8.63
2022-10-04T17:36:51.091Z,7.97
2022-10-04T17:38:58.676Z,9.00
2022-10-04T17:41:03.204Z,9.73
2022-10-04T17:43:23.129Z,8.73
2022-10-04T17:45:43.218Z,9.23
2022-10-04T17:48:06.853Z,9.85
2022-10-04T17:50:33.861Z,10.23
2022-10-04T17:53:00.874Z,10.15
2022-10-04T17:55:26.138Z,9.55
2022-10-04T17:57:35.246Z,11.13
2022-10-04T17:59:48.529Z,10.75
2022-10-04T18:02:04.376Z,11.02
2022-10-04T18:04:06.522Z,11.05
2022-10-04T18:06:25.643Z,11.70
2022-10-04T18:08:39.331Z,12.05
2022-10-04T18:10:55.475Z,11.77
2022-10-04T18:13:11.321Z,13.07
2022-10-04T18:15:29.514Z,12.77
2022-10-04T18:17:34.982Z,13.18
2022-10-04T18:19:44.522Z,12.23
2022-10-04T18:21:51.797Z,12.50
2022-10-04T18:23:54.941Z,13.55
2022-10-04T18:26:01.156Z,13.70
2022-10-04T18:28:11.003Z,13.82
2022-10-04T18:30:15.905Z,13.05
2022-10-04T18:32:27.014Z,13.80
2022-10-04T18:34:29.762Z,13.13
2022-10-04T18:36:46.598Z,12.70
2022-10-04T18:39:18.034Z,14.10
2022-10-04T18:41:23.252Z,14.05
2022-10-04T18:44:00.361Z,14.38
2022-10-04T18:46:13.906Z,14.40
2022-10-04T18:48:18.322Z,13.98
2022-10-04T18:50:19.853Z,14.75
2022-10-04T18:52:26.665Z,15.60
2022-10-04T18:54:28.820Z,15.18
2022-10-04T18:56:34.188Z,14.70
2022-10-04T18:59:13.659Z,15.20
2022-10-04T19:01:53.801Z,15.05
2022-10-04T19:04:03.332Z,15.75
2022-10-04T19:06:04.862Z,15.73
2022-10-04T19:08:09.650Z,16.23
2022-10-04T19:10:29.968Z,16.83
2022-10-04T19:12:54.617Z,16.15
2022-10-04T19:15:07.331Z,16.02
2022-10-04T19:17:17.742Z,16.90
2022-10-04T19:19:22.353Z,17.02
2022-10-04T19:21:43.901Z,17.17
2022-10-04T19:23:51.288Z,17.65
2022-10-04T19:26:33.228Z,17.15
2022-10-04T19:28:35.967Z,17.73
2022-10-04T19:30:56.188Z,17.95
2022-10-04T19:33:06.871Z,18.15
2022-10-04T19:35:14.498Z,18.15
2022-10-04T19:37:20.140Z,17.98
2022-10-04T19:39:40.809Z,18.70
2022-10-04T19:41:51.592Z,18.15
2022-10-04T19:44:11.751Z,18.25
2022-10-04T19:46:31.668Z,19.33
2022-10-04T19:48:38.745Z,18.70
2022-10-04T19:50:45.248Z,18.55
2022-10-04T19:52:46.839Z,18.92
2022-10-04T19:54:51.768Z,18.77
2022-10-04T19:56:54.905Z,19.15
2022-10-04T19:59:05.344Z,19.25
2022-10-04T20:01:11.408Z,19.40
2022-10-04T20:03:13.376Z,19.00
2022-10-04T20:05:16.002Z,19.35
2022-10-04T20:07:24.930Z,19.35
2022-10-04T20:09:43.978Z,19.52
2022-10-04T20:11:50.006Z,19.67
2022-10-04T20:14:11.689Z,19.75
2022-10-04T20:16:14.627Z,19.38
2022-10-04T20:18:37.499Z,19.45
2022-10-04T20:20:39.230Z,21.42
2022-10-04T20:23:01.186Z,19.55
2022-10-04T20:25:02.880Z,19.90
2022-10-04T20:27:06.697Z,20.60
2022-10-04T20:29:08.366Z,20.08
2022-10-04T20:31:19.086Z,19.98
2022-10-04T20:33:37.061Z,19.38
2022-10-04T20:35:57.877Z,19.95
2022-10-04T20:38:20.337Z,20.30
2022-10-04T20:40:21.404Z,20.67
2022-10-04T20:42:29.930Z,20.13
2022-10-04T20:44:41.164Z,20.17
2022-10-04T20:46:50.754Z,20.05
2022-10-04T20:48:55.835Z,19.50
2022-10-04T20:51:06.373Z,19.52
2022-10-04T20:53:17.450Z,18.58
2022-10-04T20:55:28.054Z,18.88
2022-10-04T20:57:30.244Z,19.90
2022-10-04T20:59:32.210Z,19.90
2022-10-04T21:01:37.776Z,21.65
2022-10-04T21:03:40.471Z,21.70
2022-10-04T21:05:42.783Z,21.20
2022-10-04T21:07:44.626Z,20.95
2022-10-04T21:09:46.478Z,19.33
2022-10-04T21:11:51.105Z,22.13
2022-10-04T21:13:57.363Z,20.45
2022-10-04T21:16:00.523Z,20.15
2022-10-04T21:18:07.071Z,20.65
2022-10-04T21:20:34.789Z,20.67
2022-10-04T21:22:36.897Z,21.95
2022-10-04T21:24:50.938Z,20.27
2022-10-04T21:26:56.819Z,20.45
2022-10-04T21:28:58.662Z,20.67
2022-10-04T21:31:00.866Z,21.23
2022-10-04T21:33:02.363Z,19.88
2022-10-04T21:35:05.304Z,21.52
2022-10-04T21:37:07.036Z,20.67
2022-10-04T21:39:08.566Z,21.40
2022-10-04T21:41:10.264Z,20.33
2022-10-04T21:43:12.091Z,20.42
2022-10-04T21:45:13.666Z,21.73
2022-10-04T21:47:15.534Z,20.45
2022-10-04T21:49:17.246Z,21.87
2022-10-04T21:51:18.808Z,21.67
2022-10-04T21:53:20.629Z,20.88
2022-10-04T21:55:22.375Z,20.52
2022-10-04T21:57:24.022Z,21.48
2022-10-04T21:59:25.940Z,20.90
2022-10-04T22:01:27.796Z,21.38
2022-10-04T22:03:29.446Z,20.67
2022-10-04T22:05:31.361Z,21.55
2022-10-04T22:07:33.073Z,20.63
2022-10-04T22:09:35.943Z,22.02
2022-10-04T22:11:37.808Z,21.02
2022-10-04T22:13:39.761Z,20.33
2022-10-04T22:15:41.539Z,20.23
2022-10-04T22:17:43.049Z,19.52
2022-10-04T22:19:44.747Z,21.27
2022-10-04T22:21:46.287Z,22.17
2022-10-04T22:23:48.389Z,22.48
2022-10-04T22:25:50.594Z,20.20
2022-10-04T22:27:53.255Z,21.38
2022-10-04T22:29:57.707Z,20.88
2022-10-04T22:31:59.606Z,21.90
2022-10-04T22:34:01.369Z,21.90
2022-10-04T22:36:12.656Z,21.23
2022-10-04T22:38:14.389Z,21.38
2022-10-04T22:40:23.705Z,21.20
2022-10-04T22:42:27.742Z,22.30
2022-10-04T22:44:31.240Z,22.05
2022-10-04T22:46:36.055Z,22.23
2022-10-04T22:48:37.572Z,20.85
2022-10-04T22:50:39.611Z,20.77
2022-10-04T22:52:41.159Z,20.85
2022-10-04T22:54:44.059Z,20.88
2022-10-04T22:56:46.490Z,21.13
2022-10-04T22:58:48.211Z,19.45
2022-10-04T23:00:49.805Z,20.05
2022-10-04T23:02:51.626Z,18.77
2022-10-04T23:04:55.086Z,18.65
2022-10-04T23:06:56.970Z,19.13
2022-10-04T23:08:59.323Z,18.88
2022-10-04T23:11:00.887Z,18.93
2022-10-04T23:13:02.538Z,18.17
2022-10-04T23:15:06.355Z,18.15
2022-10-04T23:17:24.475Z,16.75
2022-10-04T23:19:26.388Z,17.50
2022-10-04T23:21:30.888Z,16.88
2022-10-04T23:23:32.738Z,17.60
2022-10-04T23:25:34.838Z,17.95
2022-10-04T23:27:36.753Z,16.92
2022-10-04T23:29:38.654Z,16.08
2022-10-04T23:31:40.631Z,16.70
2022-10-04T23:33:42.399Z,16.02
2022-10-04T23:35:44.242Z,15.45
2022-10-04T23:37:46.365Z,15.18
2022-10-04T23:39:48.835Z,15.57
2022-10-04T23:41:51.041Z,15.30
2022-10-04T23:43:52.823Z,14.23
2022-10-04T23:45:56.320Z,14.75
2022-10-04T23:48:00.936Z,15.50
2022-10-04T23:50:07.435Z,14.43
2022-10-04T23:52:13.670Z,14.02
2022-10-04T23:54:17.057Z,13.82
2022-10-04T23:56:23.233Z,13.88
2022-10-04T23:58:29.918Z,13.77
